createdAt,value
2019-03-29T00:01:54.076Z,8.90
2019-03-29T00:04:22.620Z,8.90
2019-03-29T00:06:50.863Z,8.90
2019-03-29T00:09:19.112Z,8.90
2019-03-29T00:11:47.343Z,8.80
2019-03-29T00:14:15.941Z,8.90
2019-03-29T00:16:44.422Z,8.90
2019-03-29T00:19:12.671Z,8.80
2019-03-29T00:21:41.262Z,8.90
2019-03-29T00:24:09.551Z,8.90
2019-03-29T00:26:37.825Z,8.90
2019-03-29T00:29:06.080Z,8.90
2019-03-29T00:31:34.694Z,8.90
2019-03-29T00:34:03.018Z,8.90
2019-03-29T00:36:31.552Z,8.90
2019-03-29T00:38:59.799Z,8.90
2019-03-29T00:41:28.327Z,8.90
2019-03-29T00:43:56.582Z,8.90
2019-03-29T00:46:24.828Z,8.90
2019-03-29T00:48:53.089Z,8.90
2019-03-29T00:51:21.326Z,8.90
2019-03-29T00:53:49.587Z,8.90
2019-03-29T00:56:18.070Z,8.80
2019-03-29T00:58:46.326Z,8.90
2019-03-29T01:01:14.560Z,8.80
2019-03-29T01:03:43.155Z,8.80
2019-03-29T01:06:13.041Z,8.80
2019-03-29T01:08:41.662Z,8.80
2019-03-29T01:11:10.243Z,8.80
2019-03-29T01:13:38.475Z,8.80
2019-03-29T01:16:07.016Z,8.80
2019-03-29T01:18:35.264Z,8.80
2019-03-29T01:21:04.434Z,8.80
2019-03-29T01:23:32.983Z,8.80
2019-03-29T01:26:01.368Z,8.80
2019-03-29T01:28:29.947Z,8.70
2019-03-29T01:30:58.213Z,8.80
2019-03-29T01:33:26.714Z,8.80
2019-03-29T01:35:55.226Z,8.80
2019-03-29T01:38:24.571Z,8.80
2019-03-29T01:40:53.300Z,8.80
2019-03-29T01:43:21.551Z,8.80
2019-03-29T01:45:49.962Z,8.80
2019-03-29T01:48:18.220Z,8.80
2019-03-29T01:50:46.477Z,8.80
2019-03-29T01:53:15.013Z,8.80
2019-03-29T01:55:43.264Z,8.80
2019-03-29T01:58:11.507Z,8.80
2019-03-29T02:00:39.757Z,8.80
2019-03-29T02:03:08.008Z,8.80
2019-03-29T02:05:36.247Z,8.80
2019-03-29T02:08:05.054Z,8.80
2019-03-29T02:10:33.647Z,8.80
2019-03-29T02:13:01.896Z,8.80
2019-03-29T02:15:31.133Z,8.80
2019-03-29T02:17:59.396Z,8.80
2019-03-29T02:20:27.943Z,8.80
2019-03-29T02:22:56.212Z,8.80
2019-03-29T02:25:24.459Z,8.80
2019-03-29T02:27:53.032Z,8.90
2019-03-29T02:30:21.435Z,8.80
2019-03-29T02:32:49.675Z,8.80
2019-03-29T02:35:17.925Z,8.90
2019-03-29T02:37:46.533Z,8.90
2019-03-29T02:40:14.760Z,8.90
2019-03-29T02:42:43.360Z,8.90
2019-03-29T02:45:11.899Z,8.90
2019-03-29T02:47:40.159Z,8.90
2019-03-29T02:50:09.218Z,8.90
2019-03-29T02:52:37.564Z,8.90
2019-03-29T02:55:08.796Z,8.90
2019-03-29T02:57:37.371Z,8.90
2019-03-29T03:00:07.498Z,8.90
2019-03-29T03:02:35.754Z,8.80
2019-03-29T03:05:05.022Z,8.80
2019-03-29T03:07:33.580Z,8.90
2019-03-29T03:10:02.086Z,8.80
2019-03-29T03:12:30.511Z,8.80
2019-03-29T03:14:58.768Z,8.80
2019-03-29T03:17:27.160Z,8.80
2019-03-29T03:19:55.689Z,8.80
2019-03-29T03:22:23.939Z,8.80
2019-03-29T03:24:52.364Z,8.80
2019-03-29T03:27:20.608Z,8.80
2019-03-29T03:29:49.178Z,8.80
2019-03-29T03:32:17.424Z,8.80
2019-03-29T03:34:45.878Z,8.80
2019-03-29T03:37:14.468Z,8.90
2019-03-29T03:39:43.058Z,8.80
2019-03-29T03:42:11.308Z,8.80
2019-03-29T03:44:39.556Z,8.90
2019-03-29T03:47:07.809Z,8.90
2019-03-29T03:49:36.063Z,8.90
2019-03-29T03:52:04.696Z,8.90
2019-03-29T03:54:33.189Z,8.90
2019-03-29T03:57:01.845Z,8.90
2019-03-29T03:59:30.175Z,8.90
2019-03-29T04:01:58.808Z,8.90
2019-03-29T04:04:27.047Z,8.80
2019-03-29T04:06:55.293Z,8.90
2019-03-29T04:09:23.536Z,8.90
2019-03-29T04:11:52.842Z,8.80
2019-03-29T04:14:21.164Z,8.90
2019-03-29T04:16:49.726Z,8.90
2019-03-29T04:19:18.317Z,8.90
2019-03-29T04:21:46.804Z,8.90
2019-03-29T04:24:15.071Z,8.90
2019-03-29T04:26:43.304Z,8.90
2019-03-29T04:29:11.580Z,8.90
2019-03-29T04:31:40.225Z,8.90
2019-03-29T04:34:08.487Z,8.80
2019-03-29T04:36:36.721Z,8.80
2019-03-29T04:39:05.649Z,8.80
2019-03-29T04:41:33.886Z,8.90
2019-03-29T04:44:02.852Z,8.80
2019-03-29T04:46:31.343Z,8.90
2019-03-29T04:48:59.587Z,8.80
2019-03-29T04:51:27.995Z,8.80
2019-03-29T04:53:56.596Z,8.80
2019-03-29T04:56:25.181Z,8.90
2019-03-29T04:58:53.771Z,8.80
2019-03-29T05:01:22.357Z,8.90
2019-03-29T05:03:50.989Z,8.90
2019-03-29T05:06:19.235Z,8.90
2019-03-29T05:08:47.487Z,8.90
2019-03-29T05:11:16.092Z,8.90
2019-03-29T05:13:44.336Z,8.90
2019-03-29T05:16:12.601Z,8.90
2019-03-29T05:19:20.292Z,8.90
2019-03-29T05:21:14.992Z,8.90
2019-03-29T05:23:43.239Z,8.90
2019-03-29T05:26:11.485Z,9.00
2019-03-29T05:28:42.756Z,9.00
2019-03-29T05:31:11.007Z,9.00
2019-03-29T05:33:39.527Z,9.00
2019-03-29T05:36:08.112Z,9.00
2019-03-29T05:38:36.695Z,9.00
2019-03-29T05:41:04.957Z,9.10
2019-03-29T05:43:33.467Z,9.10
2019-03-29T05:46:01.734Z,9.10
2019-03-29T05:48:29.980Z,9.10
2019-03-29T05:50:58.513Z,9.20
2019-03-29T05:53:26.799Z,9.20
2019-03-29T05:55:55.090Z,9.30
2019-03-29T05:58:23.660Z,9.30
2019-03-29T06:00:51.910Z,9.30
2019-03-29T06:03:20.388Z,9.40
2019-03-29T06:05:48.650Z,9.40
2019-03-29T06:08:18.232Z,9.50
2019-03-29T06:10:49.338Z,9.50
2019-03-29T06:13:16.741Z,9.60
2019-03-29T06:15:44.997Z,9.70
2019-03-29T06:18:13.478Z,9.70
2019-03-29T06:20:41.777Z,9.80
2019-03-29T06:23:10.318Z,9.80
2019-03-29T06:25:38.696Z,9.90
2019-03-29T06:28:07.234Z,9.90
2019-03-29T06:30:35.819Z,10.00
2019-03-29T06:33:04.063Z,10.00
2019-03-29T06:35:33.151Z,10.10
2019-03-29T06:38:01.994Z,10.10
2019-03-29T06:40:30.245Z,10.20
2019-03-29T06:42:58.503Z,10.30
2019-03-29T06:45:26.841Z,10.20
2019-03-29T06:47:55.104Z,10.30
2019-03-29T06:50:23.352Z,10.40
2019-03-29T06:52:51.875Z,10.40
2019-03-29T06:55:20.487Z,10.50
2019-03-29T06:57:48.751Z,10.50
2019-03-29T07:00:17.335Z,10.60
2019-03-29T07:02:45.916Z,10.70
2019-03-29T07:05:15.048Z,10.80
2019-03-29T07:07:44.669Z,10.80
2019-03-29T07:10:13.006Z,10.90
2019-03-29T07:12:41.275Z,11.00
2019-03-29T07:15:09.512Z,11.10
2019-03-29T07:17:37.776Z,11.00
2019-03-29T07:20:06.918Z,11.00
2019-03-29T07:22:35.248Z,11.10
2019-03-29T07:25:05.843Z,11.10
2019-03-29T07:27:44.631Z,11.20
2019-03-29T07:30:05.740Z,11.20
2019-03-29T07:32:34.047Z,11.40
2019-03-29T07:35:02.296Z,11.40
2019-03-29T07:37:30.861Z,11.60
2019-03-29T07:39:59.445Z,11.70
2019-03-29T07:42:27.703Z,11.90
2019-03-29T07:44:55.943Z,12.00
2019-03-29T07:47:24.501Z,12.10
2019-03-29T07:49:53.136Z,12.30
2019-03-29T07:52:21.456Z,12.30
2019-03-29T07:54:49.832Z,12.40
2019-03-29T07:57:18.099Z,12.60
2019-03-29T07:59:46.712Z,12.90
2019-03-29T08:02:15.295Z,12.90
2019-03-29T08:04:46.362Z,12.90
2019-03-29T08:07:26.337Z,13.20
2019-03-29T08:09:43.823Z,13.30
2019-03-29T08:12:12.080Z,13.20
2019-03-29T08:14:40.348Z,13.20
2019-03-29T08:17:08.600Z,13.40
2019-03-29T08:19:37.466Z,13.50
2019-03-29T08:22:05.884Z,14.00
2019-03-29T08:24:34.432Z,14.50
2019-03-29T08:27:03.019Z,14.80
2019-03-29T08:29:31.636Z,15.10
2019-03-29T08:32:00.295Z,15.20
2019-03-29T08:34:28.550Z,15.10
2019-03-29T08:36:57.102Z,14.80
2019-03-29T08:39:28.247Z,14.30
2019-03-29T08:42:00.330Z,14.20
2019-03-29T08:44:25.618Z,14.30
2019-03-29T08:46:53.861Z,14.40
2019-03-29T08:49:22.111Z,14.80
2019-03-29T08:51:50.638Z,15.20
2019-03-29T08:54:18.896Z,15.50
2019-03-29T08:56:47.509Z,16.00
2019-03-29T08:59:17.570Z,16.60
2019-03-29T09:01:46.468Z,16.80
2019-03-29T09:04:14.723Z,16.80
2019-03-29T09:06:53.353Z,17.10
2019-03-29T09:09:13.664Z,17.30
2019-03-29T09:11:42.099Z,17.40
2019-03-29T09:14:10.899Z,18.10
2019-03-29T09:16:39.683Z,18.10
2019-03-29T09:19:08.477Z,18.10
2019-03-29T09:21:36.937Z,17.60
2019-03-29T09:24:05.363Z,17.00
2019-03-29T09:26:33.880Z,17.00
2019-03-29T09:29:02.620Z,16.70
2019-03-29T09:31:32.364Z,16.40
2019-03-29T09:34:00.820Z,15.90
2019-03-29T09:36:29.255Z,15.70
2019-03-29T09:38:57.686Z,15.50
2019-03-29T09:41:26.480Z,15.70
2019-03-29T09:43:55.277Z,15.90
2019-03-29T09:46:24.091Z,15.70
2019-03-29T09:48:52.874Z,15.60
2019-03-29T09:51:21.316Z,15.80
2019-03-29T09:53:49.752Z,16.20
2019-03-29T09:56:19.089Z,17.00
2019-03-29T09:58:48.484Z,17.20
2019-03-29T10:01:20.517Z,17.30
2019-03-29T10:03:47.352Z,17.30
2019-03-29T10:06:15.800Z,17.50
2019-03-29T10:08:44.535Z,18.20
2019-03-29T10:11:13.363Z,18.70
2019-03-29T10:13:41.831Z,18.40
2019-03-29T10:16:10.848Z,18.50
2019-03-29T10:18:39.600Z,18.30
2019-03-29T10:21:08.068Z,18.20
2019-03-29T10:23:36.490Z,17.40
2019-03-29T10:26:04.935Z,17.40
2019-03-29T10:28:33.366Z,17.40
2019-03-29T10:31:02.126Z,17.20
2019-03-29T10:33:30.567Z,17.40
2019-03-29T10:35:59.004Z,17.50
2019-03-29T10:38:27.790Z,18.00
2019-03-29T10:40:56.580Z,18.00
2019-03-29T10:43:25.041Z,18.10
2019-03-29T10:45:53.471Z,18.00
2019-03-29T10:48:21.928Z,17.70
2019-03-29T10:50:50.359Z,17.50
2019-03-29T10:53:18.803Z,17.50
2019-03-29T10:55:47.268Z,17.40
2019-03-29T10:58:15.758Z,17.70
2019-03-29T11:00:44.189Z,17.80
2019-03-29T11:03:13.284Z,17.40
2019-03-29T11:05:41.716Z,17.20
2019-03-29T11:08:12.060Z,17.00
2019-03-29T11:10:41.168Z,17.10
2019-03-29T11:13:13.643Z,17.70
2019-03-29T11:15:41.655Z,17.90
2019-03-29T11:18:10.127Z,17.90
2019-03-29T11:20:38.563Z,18.40
2019-03-29T11:23:07.293Z,18.70
2019-03-29T11:25:36.187Z,18.60
2019-03-29T11:28:04.651Z,19.00
2019-03-29T11:30:42.237Z,19.60
2019-03-29T11:33:03.878Z,20.20
2019-03-29T11:35:32.348Z,20.10
2019-03-29T11:38:01.155Z,19.30
2019-03-29T11:40:29.601Z,19.30
2019-03-29T11:42:58.104Z,19.70
2019-03-29T11:45:26.563Z,19.40
2019-03-29T11:48:07.298Z,19.20
2019-03-29T11:50:25.141Z,19.20
2019-03-29T11:52:53.574Z,19.50
2019-03-29T11:55:22.095Z,19.80
2019-03-29T11:57:50.888Z,20.10
2019-03-29T12:00:22.407Z,19.90
2019-03-29T12:02:51.128Z,19.60
2019-03-29T12:05:19.570Z,19.50
2019-03-29T12:07:48.026Z,19.50
2019-03-29T12:10:16.463Z,19.80
2019-03-29T12:12:45.275Z,20.30
2019-03-29T12:15:14.399Z,20.60
2019-03-29T12:17:42.831Z,20.60
2019-03-29T12:20:12.191Z,20.20
2019-03-29T12:22:41.060Z,19.80
2019-03-29T12:25:09.848Z,20.40
2019-03-29T12:27:38.650Z,20.90
2019-03-29T12:30:09.588Z,21.50
2019-03-29T12:32:38.380Z,21.60
2019-03-29T12:35:10.059Z,21.80
2019-03-29T12:37:38.736Z,21.80
2019-03-29T12:40:08.318Z,21.10
2019-03-29T12:42:36.764Z,21.20
2019-03-29T12:45:08.183Z,21.80
2019-03-29T12:47:36.628Z,22.20
2019-03-29T12:50:09.543Z,22.10
2019-03-29T12:52:47.129Z,21.70
2019-03-29T12:55:26.955Z,21.50
2019-03-29T12:57:55.416Z,21.40
2019-03-29T13:00:38.263Z,21.20
2019-03-29T13:03:14.626Z,21.30
2019-03-29T13:05:53.321Z,21.30
2019-03-29T13:08:22.374Z,21.60
2019-03-29T13:11:06.009Z,21.70
2019-03-29T13:13:35.099Z,21.80
2019-03-29T13:16:03.514Z,22.70
2019-03-29T13:18:31.948Z,23.00
2019-03-29T13:21:02.363Z,22.70
2019-03-29T13:23:30.796Z,23.00
2019-03-29T13:25:59.235Z,22.70
2019-03-29T13:28:28.023Z,22.70
2019-03-29T13:31:19.811Z,22.70
2019-03-29T13:33:51.316Z,22.90
2019-03-29T13:36:19.928Z,23.70
2019-03-29T13:38:48.739Z,23.50
2019-03-29T13:41:17.260Z,23.10
2019-03-29T13:43:45.691Z,22.70
2019-03-29T13:46:14.481Z,22.70
2019-03-29T13:48:42.912Z,23.30
2019-03-29T13:51:11.358Z,23.20
2019-03-29T13:53:40.123Z,23.20
2019-03-29T13:56:08.786Z,23.60
2019-03-29T13:58:37.227Z,23.30
2019-03-29T14:01:05.643Z,22.90
2019-03-29T14:03:34.091Z,22.70
2019-03-29T14:06:02.855Z,23.00
2019-03-29T14:08:31.319Z,23.40
2019-03-29T14:10:59.759Z,23.70
2019-03-29T14:13:28.509Z,23.80
2019-03-29T14:15:56.947Z,23.30
2019-03-29T14:18:25.404Z,22.90
2019-03-29T14:20:54.178Z,22.50
2019-03-29T14:23:22.599Z,22.30
2019-03-29T14:25:51.353Z,22.00
2019-03-29T14:28:20.135Z,22.70
2019-03-29T14:30:49.041Z,22.90
2019-03-29T14:33:19.525Z,23.20
2019-03-29T14:35:48.267Z,23.20
2019-03-29T14:38:17.055Z,23.30
2019-03-29T14:40:45.851Z,23.10
2019-03-29T14:43:14.333Z,22.30
2019-03-29T14:45:42.847Z,22.40
2019-03-29T14:48:12.271Z,22.60
2019-03-29T14:50:40.723Z,22.70
2019-03-29T14:53:09.152Z,22.50
2019-03-29T14:55:37.596Z,22.60
2019-03-29T14:58:06.569Z,22.30
2019-03-29T15:00:41.398Z,22.10
2019-03-29T15:03:10.692Z,22.20
2019-03-29T15:05:39.877Z,22.30
2019-03-29T15:08:08.648Z,22.40
2019-03-29T15:10:37.078Z,22.50
2019-03-29T15:13:05.535Z,22.60
2019-03-29T15:15:33.984Z,22.50
2019-03-29T15:18:02.739Z,21.90
2019-03-29T15:20:31.163Z,22.10
2019-03-29T15:22:59.648Z,22.50
2019-03-29T15:25:28.130Z,22.20
2019-03-29T15:27:56.757Z,21.90
2019-03-29T15:30:25.490Z,21.70
2019-03-29T15:32:54.276Z,21.40
2019-03-29T15:35:23.065Z,21.10
2019-03-29T15:37:51.492Z,21.20
2019-03-29T15:40:20.277Z,21.20
2019-03-29T15:42:48.771Z,21.40
2019-03-29T15:45:20.563Z,21.20
2019-03-29T15:47:47.375Z,21.10
2019-03-29T15:50:15.832Z,21.30
2019-03-29T15:52:47.779Z,21.00
2019-03-29T15:55:17.369Z,21.40
2019-03-29T15:57:46.192Z,21.70
2019-03-29T16:00:15.383Z,21.70
2019-03-29T16:02:43.815Z,21.40
2019-03-29T16:05:12.557Z,21.20
2019-03-29T16:07:40.993Z,21.20
2019-03-29T16:10:09.945Z,21.10
2019-03-29T16:12:38.733Z,20.90
2019-03-29T16:15:07.714Z,20.60
2019-03-29T16:17:36.409Z,20.40
2019-03-29T16:20:06.667Z,20.10
2019-03-29T16:22:35.463Z,20.00
2019-03-29T16:25:06.817Z,19.80
2019-03-29T16:27:35.247Z,19.60
2019-03-29T16:30:05.795Z,19.20
2019-03-29T16:32:34.218Z,19.10
2019-03-29T16:35:02.661Z,18.80
2019-03-29T16:37:31.102Z,18.60
2019-03-29T16:40:02.336Z,18.40
2019-03-29T16:42:33.093Z,18.30
2019-03-29T16:45:02.042Z,18.20
2019-03-29T16:47:30.494Z,18.00
2019-03-29T16:49:58.927Z,17.80
2019-03-29T16:52:27.377Z,17.50
2019-03-29T16:54:55.907Z,17.40
2019-03-29T16:57:24.462Z,17.30
2019-03-29T16:59:53.929Z,17.10
2019-03-29T17:02:22.378Z,17.00
2019-03-29T17:04:51.151Z,16.90
2019-03-29T17:07:19.587Z,16.80
2019-03-29T17:09:48.325Z,16.70
2019-03-29T17:12:17.692Z,16.60
2019-03-29T17:14:46.452Z,16.50
2019-03-29T17:17:15.217Z,16.40
2019-03-29T17:19:43.632Z,16.40
2019-03-29T17:22:13.067Z,16.30
2019-03-29T17:24:41.491Z,16.20
2019-03-29T17:27:09.930Z,16.10
2019-03-29T17:29:39.996Z,16.00
2019-03-29T17:32:08.812Z,15.90
2019-03-29T17:34:38.257Z,15.80
2019-03-29T17:37:10.547Z,15.60
2019-03-29T17:39:41.453Z,15.50
2019-03-29T17:42:10.403Z,15.30
2019-03-29T17:44:38.836Z,15.20
2019-03-29T17:47:07.509Z,15.00
2019-03-29T17:49:41.826Z,14.90
2019-03-29T17:52:14.891Z,14.70
2019-03-29T17:54:43.501Z,14.60
2019-03-29T17:57:12.021Z,14.40
2019-03-29T17:59:40.447Z,14.20
2019-03-29T18:02:09.892Z,14.10
2019-03-29T18:04:38.408Z,13.90
2019-03-29T18:07:07.141Z,13.80
2019-03-29T18:09:35.610Z,13.60
2019-03-29T18:12:05.432Z,13.50
2019-03-29T18:14:33.856Z,13.30
2019-03-29T18:17:02.776Z,13.10
2019-03-29T18:19:31.455Z,13.00
2019-03-29T18:22:00.352Z,12.90
2019-03-29T18:24:30.208Z,12.80
2019-03-29T18:26:59.103Z,12.70
2019-03-29T18:29:27.538Z,12.60
2019-03-29T18:31:56.283Z,12.50
2019-03-29T18:34:25.484Z,12.40
2019-03-29T18:36:56.156Z,12.30
2019-03-29T18:39:26.198Z,12.20
2019-03-29T18:41:54.644Z,12.10
2019-03-29T18:44:23.421Z,12.00
2019-03-29T18:46:51.855Z,11.90
2019-03-29T18:49:20.323Z,11.90
2019-03-29T18:51:48.858Z,11.80
2019-03-29T18:54:17.577Z,11.70
2019-03-29T18:56:46.398Z,11.60
2019-03-29T18:59:14.816Z,11.50
2019-03-29T19:01:43.527Z,11.50
2019-03-29T19:04:12.220Z,11.40
2019-03-29T19:06:40.664Z,11.30
2019-03-29T19:09:09.096Z,11.30
2019-03-29T19:11:38.567Z,11.20
2019-03-29T19:14:09.235Z,11.00
2019-03-29T19:16:38.037Z,11.00
2019-03-29T19:19:10.303Z,10.90
2019-03-29T19:21:36.987Z,10.80
2019-03-29T19:24:05.837Z,10.70
2019-03-29T19:26:34.635Z,10.60
2019-03-29T19:29:04.496Z,10.60
2019-03-29T19:31:33.240Z,10.40
2019-03-29T19:34:01.677Z,10.40
2019-03-29T19:36:30.383Z,10.30
2019-03-29T19:38:58.920Z,10.30
2019-03-29T19:41:27.623Z,10.20
2019-03-29T19:43:56.131Z,10.10
2019-03-29T19:46:24.575Z,10.00
2019-03-29T19:48:53.351Z,10.00
2019-03-29T19:51:22.040Z,9.90
2019-03-29T19:53:50.879Z,9.90
2019-03-29T19:56:19.445Z,9.70
2019-03-29T19:58:48.316Z,9.70
2019-03-29T20:01:16.781Z,9.60
2019-03-29T20:03:45.604Z,9.50
2019-03-29T20:06:14.292Z,9.50
2019-03-29T20:08:42.720Z,9.40
2019-03-29T20:11:11.160Z,9.30
2019-03-29T20:13:39.939Z,9.30
2019-03-29T20:16:08.731Z,9.20
2019-03-29T20:18:37.451Z,9.20
2019-03-29T20:21:05.900Z,9.10
2019-03-29T20:23:34.328Z,9.10
2019-03-29T20:26:02.780Z,9.10
2019-03-29T20:28:31.227Z,9.00
2019-03-29T20:30:59.668Z,8.90
2019-03-29T20:33:28.102Z,8.80
2019-03-29T20:35:56.821Z,8.70
2019-03-29T20:38:25.612Z,8.70
2019-03-29T20:40:54.312Z,8.60
2019-03-29T20:43:23.004Z,8.60
2019-03-29T20:45:51.428Z,8.50
2019-03-29T20:48:20.171Z,8.50
2019-03-29T20:50:48.968Z,8.40
2019-03-29T20:53:17.402Z,8.40
2019-03-29T20:55:45.845Z,8.30
2019-03-29T20:58:14.628Z,8.30
2019-03-29T21:00:43.415Z,8.20
2019-03-29T21:03:11.847Z,8.10
2019-03-29T21:05:40.375Z,8.10
2019-03-29T21:08:09.113Z,8.00
2019-03-29T21:10:37.783Z,8.00
2019-03-29T21:13:07.314Z,7.90
2019-03-29T21:15:35.919Z,7.90
2019-03-29T21:18:04.353Z,7.90
2019-03-29T21:20:32.800Z,7.80
2019-03-29T21:23:01.234Z,7.80
2019-03-29T21:25:29.919Z,7.70
2019-03-29T21:28:00.666Z,7.70
2019-03-29T21:30:29.988Z,7.70
2019-03-29T21:32:58.423Z,7.60
2019-03-29T21:35:26.847Z,7.60
2019-03-29T21:37:55.288Z,7.60
2019-03-29T21:40:25.243Z,7.50
2019-03-29T21:42:53.711Z,7.60
2019-03-29T21:45:28.565Z,7.60
2019-03-29T21:48:04.117Z,7.50
2019-03-29T21:50:22.752Z,7.50
2019-03-29T21:52:51.276Z,7.40
2019-03-29T21:55:19.702Z,7.30
2019-03-29T21:57:49.530Z,7.30
2019-03-29T22:00:19.665Z,7.30
2019-03-29T22:02:48.102Z,7.20
2019-03-29T22:05:16.538Z,7.20
2019-03-29T22:07:44.977Z,7.20
2019-03-29T22:10:14.816Z,7.10
2019-03-29T22:12:43.445Z,7.10
2019-03-29T22:15:14.552Z,7.10
2019-03-29T22:17:42.997Z,7.10
2019-03-29T22:20:11.754Z,7.10
2019-03-29T22:22:40.521Z,7.10
2019-03-29T22:25:09.381Z,7.00
2019-03-29T22:27:38.264Z,7.00
2019-03-29T22:30:09.135Z,6.90
2019-03-29T22:32:37.575Z,6.90
2019-03-29T22:35:07.449Z,6.90
2019-03-29T22:37:35.888Z,6.80
2019-03-29T22:40:09.089Z,6.70
2019-03-29T22:42:37.563Z,6.60
2019-03-29T22:45:07.724Z,6.60
2019-03-29T22:47:39.139Z,6.50
2019-03-29T22:50:09.191Z,6.50
2019-03-29T22:52:37.631Z,6.40
2019-03-29T22:55:10.143Z,6.40
2019-03-29T22:57:38.882Z,6.30
2019-03-29T23:00:16.099Z,6.30
2019-03-29T23:02:44.543Z,6.20
2019-03-29T23:05:13.239Z,6.20
2019-03-29T23:07:41.695Z,6.10
2019-03-29T23:10:10.297Z,6.10
2019-03-29T23:12:39.088Z,6.10
2019-03-29T23:15:08.711Z,6.00
2019-03-29T23:17:37.240Z,6.00
2019-03-29T23:20:06.070Z,5.90
2019-03-29T23:22:34.502Z,5.90
2019-03-29T23:25:02.926Z,5.90
2019-03-29T23:27:32.663Z,5.90
2019-03-29T23:30:01.083Z,5.90
2019-03-29T23:32:29.838Z,5.90
2019-03-29T23:34:58.332Z,5.80
2019-03-29T23:37:27.118Z,5.80
2019-03-29T23:39:55.547Z,5.80
2019-03-29T23:42:23.971Z,5.80
2019-03-29T23:44:52.678Z,5.70
2019-03-29T23:47:21.368Z,5.60
2019-03-29T23:49:49.824Z,5.60
2019-03-29T23:52:18.252Z,5.50
2019-03-29T23:54:46.746Z,5.50
2019-03-29T23:57:15.491Z,5.50
2019-03-29T23:59:43.924Z,5.40
